Time;durP1;ratioP1;P1;durP2;ratioP2;P2;SDS_P1;SDS_P2;PMS_P1;PMS_P2;Temp;Humidity;BMP_temperature;BMP_pressure;BME280_temperature;BME280_humidity;BME280_pressure;Samples;Min_cycle;Max_cycle;Signal;HPM_P1;HPM_P2
2023/01/15 05:02:16;;;;;;;10.02;1.77;;;6.40;99.90;;;;;;6050372;23;20034;-78
2023/01/15 05:04:41;;;;;;;11.07;1.15;;;6.30;99.90;;;;;;6045219;23;20445;-79
2023/01/15 05:07:08;;;;;;;8.30;1.27;;;6.30;99.90;;;;;;6045131;23;20011;-79
2023/01/15 05:09:34;;;;;;;11.00;1.33;;;6.30;99.90;;;;;;6022130;23;20015;-79
2023/01/15 05:12:00;;;;;;;8.63;1.63;;;6.30;99.90;;;;;;6040714;23;20452;-79
2023/01/15 05:14:25;;;;;;;14.13;1.42;;;6.30;99.90;;;;;;6042155;23;20067;-79
2023/01/15 05:16:51;;;;;;;13.48;2.05;;;6.30;99.90;;;;;;6016919;23;20023;-79
2023/01/15 05:19:17;;;;;;;6.35;0.98;;;6.30;99.90;;;;;;6017438;23;20394;-78
2023/01/15 05:21:43;;;;;;;14.82;2.25;;;6.30;99.90;;;;;;6016671;23;20011;-78
2023/01/15 05:24:13;;;;;;;10.73;1.55;;;6.30;99.90;;;;;;6016388;23;20046;-78
2023/01/15 05:26:39;;;;;;;5.80;1.35;;;6.30;99.90;;;;;;6042001;23;20038;-78
2023/01/15 05:29:05;;;;;;;12.45;2.60;;;6.30;99.90;;;;;;6016934;23;20020;-78
2023/01/15 05:31:32;;;;;;;8.85;1.38;;;6.30;99.90;;;;;;6016633;23;20381;-79
2023/01/15 05:33:59;;;;;;;11.43;1.45;;;6.40;99.90;;;;;;6042583;23;20043;-78
2023/01/15 05:36:29;;;;;;;12.23;2.13;;;6.40;99.90;;;;;;6016779;23;20512;-79
2023/01/15 05:38:58;;;;;;;12.15;1.70;;;6.30;99.90;;;;;;6017516;23;20464;-77
2023/01/15 05:44:11;;;;;;;14.23;1.92;;;6.30;99.90;;;;;;6040447;23;20031;-78
2023/01/15 05:46:39;;;;;;;11.40;2.13;;;6.30;99.90;;;;;;6041948;23;20118;-78
2023/01/15 05:49:07;;;;;;;12.57;1.58;;;6.30;99.90;;;;;;6042916;23;20090;-78
2023/01/15 05:51:34;;;;;;;17.80;2.35;;;6.30;99.90;;;;;;6016850;23;20023;-79
2023/01/15 05:54:00;;;;;;;9.88;1.60;;;6.30;99.90;;;;;;6016555;23;20019;-79
2023/01/15 05:56:25;;;;;;;14.60;2.20;;;6.30;99.90;;;;;;6016801;23;20058;-78
2023/01/15 05:58:52;;;;;;;9.20;1.25;;;6.30;99.90;;;;;;6016344;23;20016;-77
2023/01/15 06:01:18;;;;;;;11.90;2.05;;;6.30;99.90;;;;;;6041447;23;20103;-78
2023/01/15 06:03:45;;;;;;;12.25;1.73;;;6.30;99.90;;;;;;6017068;23;20016;-77
2023/01/15 06:06:17;;;;;;;13.75;2.33;;;6.30;99.90;;;;;;5993177;23;20441;-78
2023/01/15 06:08:43;;;;;;;9.50;1.50;;;6.30;99.90;;;;;;6016836;23;20074;-80
2023/01/15 06:11:10;;;;;;;11.98;1.95;;;6.30;99.90;;;;;;5993018;23;20027;-79
2023/01/15 06:13:38;;;;;;;16.13;2.47;;;6.30;99.90;;;;;;6016659;23;20023;-79
2023/01/15 06:16:04;;;;;;;10.05;1.13;;;6.30;99.90;;;;;;6016534;23;20087;-77
2023/01/15 06:18:29;;;;;;;15.45;3.70;;;6.30;99.90;;;;;;6016498;23;20019;-80
2023/01/15 06:20:55;;;;;;;10.32;1.65;;;6.30;99.90;;;;;;5993021;23;20023;-78
2023/01/15 06:23:21;;;;;;;7.65;1.10;;;6.30;99.90;;;;;;6041866;23;20067;-78
2023/01/15 06:25:46;;;;;;;16.58;2.03;;;6.30;99.90;;;;;;6016474;23;20027;-77
2023/01/15 06:28:12;;;;;;;10.57;2.20;;;6.30;99.90;;;;;;6016641;23;20023;-79
2023/01/15 06:30:38;;;;;;;11.02;1.77;;;6.30;99.90;;;;;;6016469;23;20015;-78
2023/01/15 06:33:06;;;;;;;10.60;1.65;;;6.30;99.90;;;;;;6016600;23;20094;-80
2023/01/15 06:35:32;;;;;;;14.35;2.20;;;6.20;99.90;;;;;;6016714;23;20318;-79
2023/01/15 06:37:57;;;;;;;9.85;1.42;;;6.20;99.90;;;;;;6016656;23;20449;-78
2023/01/15 06:40:25;;;;;;;10.20;1.38;;;6.10;99.90;;;;;;6041508;23;20014;-78
2023/01/15 06:48:23;;;;;;;13.75;1.98;;;6.10;99.90;;;;;;6040206;23;20027;-79
2023/01/15 06:50:49;;;;;;;10.98;1.65;;;6.10;99.90;;;;;;6016339;23;20015;-78
2023/01/15 06:53:15;;;;;;;9.60;1.40;;;6.10;99.90;;;;;;6042126;23;20022;-79
2023/01/15 06:55:40;;;;;;;19.35;3.80;;;6.10;99.90;;;;;;6041370;23;20050;-77
2023/01/15 06:58:06;;;;;;;15.23;2.33;;;6.10;99.90;;;;;;6016909;23;20460;-79
2023/01/15 07:00:32;;;;;;;8.48;1.40;;;6.10;99.90;;;;;;6041454;23;20053;-79
2023/01/15 07:03:03;;;;;;;6.85;1.27;;;6.10;99.90;;;;;;5993254;23;20098;-79
2023/01/15 07:05:29;;;;;;;10.48;1.60;;;6.10;99.90;;;;;;5992373;23;20019;-78
2023/01/15 07:07:56;;;;;;;9.57;1.75;;;6.10;99.90;;;;;;6016648;23;20019;-79
2023/01/15 07:10:21;;;;;;;8.45;1.40;;;6.00;99.90;;;;;;6015961;23;20086;-78
2023/01/15 07:12:47;;;;;;;8.55;1.05;;;6.00;99.90;;;;;;6016304;23;20042;-77
2023/01/15 07:15:12;;;;;;;8.80;1.20;;;6.00;99.90;;;;;;6041394;23;20067;-78
2023/01/15 07:17:38;;;;;;;12.75;1.60;;;6.00;99.90;;;;;;6015955;23;20047;-78
2023/01/15 07:20:04;;;;;;;5.35;1.20;;;6.00;99.90;;;;;;5992886;23;20026;-79
2023/01/15 07:22:30;;;;;;;12.57;2.20;;;5.90;99.90;;;;;;5992450;23;20019;-78
2023/01/15 07:24:56;;;;;;;8.15;1.17;;;5.90;99.90;;;;;;6041724;23;20022;-79
2023/01/15 07:27:22;;;;;;;7.22;1.10;;;6.00;99.90;;;;;;6041533;23;20019;-79
2023/01/15 07:29:50;;;;;;;13.27;1.77;;;6.00;99.90;;;;;;5992391;23;20018;-78
2023/01/15 07:32:16;;;;;;;6.50;1.08;;;6.00;99.90;;;;;;6016022;23;20018;-78
2023/01/15 07:34:41;;;;;;;10.32;1.52;;;6.00;99.90;;;;;;6015627;23;20098;-78
2023/01/15 07:37:07;;;;;;;6.10;1.05;;;5.90;99.90;;;;;;6016568;23;20015;-79
2023/01/15 07:39:33;;;;;;;12.73;1.20;;;5.90;99.90;;;;;;6015254;23;20147;-79
2023/01/15 07:50:20;;;;;;;10.38;1.23;;;5.90;99.90;;;;;;6040026;23;20386;-78
2023/01/15 07:52:45;;;;;;;7.88;1.27;;;5.90;99.90;;;;;;6015587;23;20023;-78
2023/01/15 07:55:12;;;;;;;11.23;1.70;;;5.90;99.90;;;;;;6015961;23;20033;-78
2023/01/15 07:57:38;;;;;;;10.75;1.35;;;5.90;99.90;;;;;;6016195;23;20034;-78
2023/01/15 08:00:12;;;;;;;12.52;1.55;;;5.80;99.90;;;;;;6041287;23;20011;-78
2023/01/15 08:02:39;;;;;;;13.35;1.77;;;5.80;99.90;;;;;;6014897;23;20067;-79
2023/01/15 08:05:05;;;;;;;9.98;0.98;;;5.80;99.90;;;;;;6015284;23;20092;-78
2023/01/15 08:07:35;;;;;;;13.27;1.73;;;5.90;99.90;;;;;;6016418;23;20395;-77
2023/01/15 08:10:00;;;;;;;9.75;1.83;;;5.90;99.90;;;;;;6040697;23;20008;-78
2023/01/15 08:15:13;;;;;;;16.77;1.52;;;5.90;99.90;;;;;;6040748;23;20434;-79
2023/01/15 08:17:44;;;;;;;7.97;1.40;;;6.10;99.90;;;;;;5992198;23;20066;-78
2023/01/15 08:20:18;;;;;;;11.32;1.83;;;6.10;99.90;;;;;;6016149;23;20029;-79
2023/01/15 08:22:45;;;;;;;13.77;1.98;;;6.20;99.90;;;;;;6015851;23;20019;-81
2023/01/15 08:25:14;;;;;;;8.05;1.63;;;6.20;99.90;;;;;;6016669;23;20023;-80
2023/01/15 08:27:40;;;;;;;8.85;1.77;;;6.10;99.90;;;;;;6042089;23;20015;-80
2023/01/15 08:30:18;;;;;;;7.75;1.27;;;6.10;99.90;;;;;;6017910;23;20057;-79
2023/01/15 08:32:44;;;;;;;13.20;1.92;;;6.00;99.90;;;;;;5996222;23;20041;-76
2023/01/15 08:35:11;;;;;;;7.18;1.20;;;6.00;99.90;;;;;;6035589;23;20022;-76
2023/01/15 08:37:37;;;;;;;11.23;1.40;;;5.90;99.90;;;;;;6053306;23;20063;-77
2023/01/15 08:40:04;;;;;;;13.48;2.42;;;5.90;99.90;;;;;;6018679;23;20405;-80
2023/01/15 08:42:30;;;;;;;5.28;0.82;;;5.90;99.90;;;;;;6018298;23;20049;-81
2023/01/15 08:44:55;;;;;;;7.85;1.50;;;5.90;99.90;;;;;;6017519;23;20012;-81
2023/01/15 08:47:21;;;;;;;6.63;1.23;;;5.90;99.90;;;;;;6017207;23;20048;-80
2023/01/15 08:49:47;;;;;;;8.93;1.63;;;5.90;99.90;;;;;;6042527;23;20094;-81
2023/01/15 08:52:13;;;;;;;8.07;1.13;;;5.80;99.90;;;;;;6016982;23;20015;-81
2023/01/15 08:54:39;;;;;;;14.07;2.95;;;5.80;99.90;;;;;;6017675;23;20375;-81
2023/01/15 08:57:05;;;;;;;9.35;1.58;;;5.80;99.90;;;;;;6042035;23;20020;-80
2023/01/15 08:59:30;;;;;;;8.35;0.90;;;5.90;99.90;;;;;;6016796;23;20497;-80
2023/01/15 09:01:56;;;;;;;13.82;1.30;;;5.90;99.90;;;;;;6041365;23;20039;-80
2023/01/15 09:04:22;;;;;;;9.10;1.40;;;5.80;99.90;;;;;;6042718;23;20020;-81
2023/01/15 09:06:48;;;;;;;12.38;1.75;;;5.70;99.90;;;;;;6042619;23;20505;-81
2023/01/15 09:09:15;;;;;;;8.23;1.58;;;5.60;99.90;;;;;;6017658;23;20020;-81
2023/01/15 09:11:41;;;;;;;9.20;1.30;;;5.50;99.90;;;;;;6042419;23;20337;-81
2023/01/15 09:14:07;;;;;;;5.97;1.13;;;5.40;99.90;;;;;;6042853;23;20016;-79
2023/01/15 09:16:37;;;;;;;4.90;1.23;;;5.40;99.90;;;;;;6042068;23;20023;-80
2023/01/15 09:19:05;;;;;;;12.60;1.30;;;5.40;99.90;;;;;;5993082;23;20023;-79
2023/01/15 09:21:32;;;;;;;9.35;1.55;;;5.40;99.90;;;;;;6041281;23;20011;-78
2023/01/15 09:23:57;;;;;;;6.72;1.02;;;5.40;99.90;;;;;;6042055;23;20019;-80
2023/01/15 09:26:33;;;;;;;11.18;2.17;;;5.30;99.90;;;;;;6016203;23;20027;-79
2023/01/15 09:29:00;;;;;;;6.97;1.30;;;5.40;99.90;;;;;;6043295;23;20397;-80
2023/01/15 09:31:26;;;;;;;10.90;1.15;;;5.40;99.90;;;;;;5993989;23;20025;-80
2023/01/15 09:33:52;;;;;;;9.98;1.33;;;5.50;99.90;;;;;;6018195;23;20019;-79
2023/01/15 09:36:23;;;;;;;21.15;3.03;;;5.60;99.90;;;;;;6017873;23;20311;-79
2023/01/15 09:38:49;;;;;;;13.00;1.60;;;5.70;99.90;;;;;;6017744;23;20086;-77
2023/01/15 09:44:16;;;;;;;11.85;2.13;;;5.90;99.90;;;;;;6042499;23;20026;-78
2023/01/15 09:46:52;;;;;;;27.40;3.53;;;6.00;99.90;;;;;;6017190;23;20019;-79
2023/01/15 09:49:53;;;;;;;9.90;1.80;;;6.10;99.90;;;;;;6017286;23;20015;-78
2023/01/15 09:52:48;;;;;;;10.80;1.63;;;6.10;99.90;;;;;;6042725;23;20050;-79
2023/01/15 09:55:27;;;;;;;11.65;1.70;;;6.10;99.90;;;;;;5917799;23;20026;-79
2023/01/15 09:58:00;;;;;;;12.02;1.67;;;6.00;99.90;;;;;;6017068;23;20026;-78
2023/01/15 10:00:33;;;;;;;14.63;2.10;;;6.00;99.90;;;;;;6016820;23;20055;-78
2023/01/15 10:03:27;;;;;;;18.38;2.30;;;5.90;99.90;;;;;;6017863;23;20026;-79
2023/01/15 10:06:26;;;;;;;10.77;1.60;;;5.90;99.90;;;;;;6018234;23;20018;-79
2023/01/15 10:09:05;;;;;;;12.43;2.30;;;5.90;99.90;;;;;;6043017;23;20142;-80
2023/01/15 10:14:39;;;;;;;16.98;3.60;;;5.90;99.90;;;;;;6042831;23;20349;-78
2023/01/15 10:17:26;;;;;;;15.98;2.78;;;6.00;99.90;;;;;;6042581;23;20154;-79
2023/01/15 10:19:53;;;;;;;9.20;1.55;;;6.00;99.90;;;;;;6017447;23;20015;-79
2023/01/15 10:22:35;;;;;;;10.95;1.80;;;6.00;99.90;;;;;;5993540;23;20413;-80
2023/01/15 10:25:04;;;;;;;12.82;1.40;;;6.00;99.90;;;;;;6042129;23;20399;-78
2023/01/15 10:27:32;;;;;;;12.88;1.67;;;6.00;99.90;;;;;;6016508;23;20015;-79
2023/01/15 10:30:05;;;;;;;10.75;2.85;;;6.10;99.90;;;;;;6017635;23;20046;-80
2023/01/15 10:32:53;;;;;;;20.83;2.55;;;6.10;99.90;;;;;;6043022;23;20117;-80
2023/01/15 10:35:48;;;;;;;15.93;2.78;;;6.10;99.90;;;;;;6016828;23;20015;-76
2023/01/15 10:38:20;;;;;;;12.05;1.83;;;5.80;99.90;;;;;;6044401;23;20003;-82
2023/01/15 10:41:13;;;;;;;10.70;1.55;;;5.60;99.90;;;;;;6043062;23;20046;-81
2023/01/15 10:43:54;;;;;;;13.10;2.85;;;5.40;99.90;;;;;;5995223;23;20019;-81
2023/01/15 10:46:32;;;;;;;12.85;2.30;;;5.40;99.90;;;;;;5995224;23;20011;-81
2023/01/15 10:49:10;;;;;;;18.75;3.28;;;5.40;99.90;;;;;;5994317;23;20052;-81
2023/01/15 10:51:41;;;;;;;19.75;2.45;;;5.40;99.90;;;;;;6017890;23;20016;-82
2023/01/15 10:54:21;;;;;;;25.15;2.88;;;5.50;99.90;;;;;;6043251;23;20019;-80
2023/01/15 10:57:00;;;;;;;16.55;1.80;;;5.60;99.90;;;;;;5993489;23;20030;-80
2023/01/15 10:59:51;;;;;;;23.00;3.55;;;5.80;99.90;;;;;;6017928;23;20029;-81
2023/01/15 11:02:38;;;;;;;7.40;1.35;;;5.90;99.90;;;;;;6016845;23;20468;-81
2023/01/15 11:05:05;;;;;;;12.77;2.10;;;6.00;99.90;;;;;;6043870;23;20446;-82
2023/01/15 11:07:52;;;;;;;16.20;3.25;;;6.10;99.90;;;;;;6043794;23;20095;-80
2023/01/15 11:10:20;;;;;;;15.95;2.00;;;6.20;99.90;;;;;;6045216;23;20500;-83
2023/01/15 11:21:38;;;;;;;14.15;1.73;;;6.60;99.90;;;;;;6044337;23;20057;-80
2023/01/15 11:24:14;;;;;;;13.02;1.95;;;6.70;99.90;;;;;;6019509;23;20047;-81
2023/01/15 11:26:39;;;;;;;;;;;6.80;99.90;;;;;;6019255;23;20026;-81
2023/01/15 11:29:15;;;;;;;14.25;1.52;;;6.80;99.90;;;;;;6019673;23;20256;-83
2023/01/15 11:31:40;;;;;;;;;;;7.00;99.90;;;;;;6019656;23;20014;-80
2023/01/15 11:34:18;;;;;;;11.20;1.88;;;7.10;99.90;;;;;;6018674;23;20245;-81
2023/01/15 11:36:43;;;;;;;10.60;2.08;;;7.20;99.90;;;;;;6019539;23;20319;-82
2023/01/15 11:39:23;;;;;;;12.65;2.38;;;7.30;99.90;;;;;;5995819;23;20075;-82
2023/01/15 11:53:03;;;;;;;9.98;1.98;;;7.70;99.90;;;;;;6043715;23;20075;-79
2023/01/15 11:55:29;;;;;;;11.60;1.58;;;7.70;99.90;;;;;;6018185;23;20015;-80
2023/01/15 11:57:57;;;;;;;14.25;1.88;;;7.60;99.90;;;;;;6018353;23;20342;-81
2023/01/15 12:00:26;;;;;;;8.27;1.92;;;7.60;99.90;;;;;;6016905;23;20023;-81
2023/01/15 12:02:59;;;;;;;11.00;1.88;;;7.50;99.90;;;;;;6017352;23;20026;-79
2023/01/15 12:05:27;;;;;;;6.95;1.30;;;7.50;99.90;;;;;;6016044;23;20019;-78
2023/01/15 12:07:56;;;;;;;12.07;2.67;;;7.50;99.90;;;;;;6041439;23;20018;-79
2023/01/15 12:13:37;;;;;;;9.90;2.60;;;7.60;99.90;;;;;;6041052;23;20055;-80
2023/01/15 12:16:07;;;;;;;12.98;2.03;;;7.60;99.90;;;;;;6017842;23;20047;-81
2023/01/15 12:18:55;;;;;;;15.38;1.75;;;7.60;99.90;;;;;;6016835;23;20019;-81
2023/01/15 12:21:45;;;;;;;6.45;1.20;;;7.50;99.90;;;;;;6017146;23;20020;-79
2023/01/15 12:24:14;;;;;;;8.30;1.83;;;7.50;99.90;;;;;;6017452;23;20438;-78
2023/01/15 12:27:09;;;;;;;12.23;1.75;;;7.50;99.90;;;;;;6042498;23;20019;-82
2023/01/15 12:29:50;;;;;;;11.52;2.15;;;7.60;99.90;;;;;;6016319;23;20019;-80
2023/01/15 12:32:22;;;;;;;15.52;2.78;;;7.70;99.90;;;;;;6042044;23;20098;-80
2023/01/15 12:35:00;;;;;;;15.13;2.67;;;7.70;99.90;;;;;;5994123;23;20011;-82
2023/01/15 12:37:30;;;;;;;12.85;2.38;;;7.70;99.90;;;;;;5993925;23;20015;-80
2023/01/15 12:40:25;;;;;;;12.85;2.88;;;7.70;99.90;;;;;;5994536;23;20075;-78
2023/01/15 12:45:43;;;;;;;10.32;2.55;;;8.00;99.90;;;;;;6042948;23;20094;-81
2023/01/15 12:48:39;;;;;;;14.88;2.92;;;8.00;99.90;;;;;;6017246;23;20023;-81
2023/01/15 12:51:07;;;;;;;11.85;2.90;;;8.00;99.90;;;;;;6016664;23;20023;-83
2023/01/15 12:53:48;;;;;;;13.13;2.50;;;7.90;99.90;;;;;;6040907;23;20019;-82
2023/01/15 12:56:41;;;;;;;14.27;3.85;;;7.90;99.90;;;;;;6015856;23;20019;-83
2023/01/15 12:59:32;;;;;;;7.53;2.05;;;7.80;99.90;;;;;;6014374;23;20334;-81
2023/01/15 13:02:12;;;;;;;17.15;5.07;;;7.80;99.90;;;;;;5990222;23;20438;-83
2023/01/15 13:04:43;;;;;;;12.68;2.13;;;7.80;99.90;;;;;;5992469;23;20509;-80
2023/01/15 13:07:34;;;;;;;18.15;4.00;;;7.80;99.90;;;;;;6018485;23;20075;-79
2023/01/15 13:10:15;;;;;;;11.82;2.45;;;7.70;99.90;;;;;;6020961;23;20493;-80
2023/01/15 13:12:41;;;;;;;15.88;2.42;;;7.60;99.90;;;;;;6055898;23;20011;-82
2023/01/15 13:15:13;;;;;;;13.40;2.30;;;7.60;99.90;;;;;;6055737;23;20043;-83
2023/01/15 13:18:17;;;;;;;15.07;3.63;;;7.40;99.90;;;;;;6041989;23;20035;-81
2023/01/15 13:20:50;;;;;;;10.93;2.10;;;7.30;99.90;;;;;;5965691;23;20030;-82
2023/01/15 13:23:53;;;;;;;12.13;2.20;;;7.20;99.90;;;;;;6046549;23;20019;-83
2023/01/15 13:26:50;;;;;;;9.88;1.83;;;7.00;99.90;;;;;;6045577;23;20015;-83
2023/01/15 13:29:24;;;;;;;;;;;6.40;99.90;;;;;;5994252;23;20019;-83
2023/01/15 13:32:02;;;;;;;12.02;1.67;;;5.80;99.90;;;;;;6019087;23;19914;-85
2023/01/15 13:34:35;;;;;;;13.85;1.95;;;5.50;99.90;;;;;;6019260;23;20115;-82
2023/01/15 13:37:15;;;;;;;10.00;2.55;;;5.40;99.90;;;;;;5996309;23;20521;-84
2023/01/15 13:39:44;;;;;;;18.20;2.75;;;5.40;99.90;;;;;;6019949;23;20015;-84
2023/01/15 13:42:32;;;;;;;9.13;1.80;;;5.30;99.90;;;;;;6019319;23;20023;-84
2023/01/15 13:45:16;;;;;;;5.90;1.00;;;5.30;99.90;;;;;;6018919;23;20059;-81
2023/01/15 13:47:49;;;;;;;12.40;4.07;;;5.10;99.90;;;;;;6043837;23;20037;-83
2023/01/15 13:50:21;;;;;;;12.93;4.60;;;5.00;99.90;;;;;;6043301;23;20346;-81
2023/01/15 13:52:47;;;;;;;9.85;4.05;;;4.90;99.90;;;;;;6044821;23;20026;-82
2023/01/15 13:55:28;;;;;;;7.07;1.98;;;4.90;99.90;;;;;;6017797;23;20019;-83
2023/01/15 13:57:57;;;;;;;8.32;1.83;;;4.90;99.90;;;;;;6019906;23;20019;-81
2023/01/15 14:00:28;;;;;;;7.70;1.60;;;4.90;99.90;;;;;;6040916;23;20382;-80
2023/01/15 14:02:56;;;;;;;9.10;1.52;;;5.00;99.90;;;;;;6016279;23;20015;-79
2023/01/15 14:05:21;;;;;;;7.88;1.50;;;5.10;99.90;;;;;;6017230;23;20015;-81
2023/01/15 14:07:48;;;;;;;13.38;1.85;;;5.10;99.90;;;;;;6017321;23;20019;-84
2023/01/15 14:10:17;;;;;;;4.60;0.80;;;5.20;99.90;;;;;;6017438;23;20015;-82
2023/01/15 14:13:05;;;;;;;7.43;1.55;;;5.30;99.90;;;;;;6018127;23;20022;-82
2023/01/15 14:16:05;;;;;;;10.93;1.65;;;5.30;99.90;;;;;;5939926;23;20094;-78
2023/01/15 14:19:08;;;;;;;11.60;2.13;;;5.30;99.90;;;;;;6017981;23;20031;-81
2023/01/15 14:22:11;;;;;;;7.68;1.23;;;5.30;99.90;;;;;;6043246;23;20099;-80
2023/01/15 14:24:39;;;;;;;4.60;1.05;;;5.40;99.90;;;;;;6017907;23;20015;-83
2023/01/15 14:27:25;;;;;;;8.13;1.38;;;5.40;99.90;;;;;;6016150;23;20102;-79
2023/01/15 14:30:15;;;;;;;8.63;1.45;;;5.40;99.90;;;;;;6017138;23;20015;-82
2023/01/15 14:32:56;;;;;;;11.27;2.80;;;5.40;99.90;;;;;;5993912;23;20063;-81
2023/01/15 14:35:23;;;;;;;8.38;1.35;;;5.40;99.90;;;;;;6017592;23;20055;-82
2023/01/15 14:38:05;;;;;;;9.82;1.58;;;5.50;99.90;;;;;;6016240;23;20446;-80
2023/01/15 14:40:33;;;;;;;7.97;1.20;;;5.50;99.90;;;;;;6041699;23;20022;-82
2023/01/15 14:43:12;;;;;;;9.75;1.38;;;5.50;99.90;;;;;;6017204;23;20018;-81
2023/01/15 14:45:45;;;;;;;7.25;2.50;;;5.60;99.90;;;;;;6017582;23;20026;-82
2023/01/15 14:48:20;;;;;;;14.15;3.42;;;5.60;99.90;;;;;;6041040;23;20046;-83
2023/01/15 14:50:48;;;;;;;11.15;1.83;;;5.70;99.90;;;;;;6017074;23;20018;-82
2023/01/15 14:53:35;;;;;;;6.95;1.33;;;5.80;99.90;;;;;;6017072;23;20022;-81
2023/01/15 14:56:37;;;;;;;11.52;2.25;;;5.80;99.90;;;;;;6042849;23;20440;-82
2023/01/15 14:59:33;;;;;;;8.50;2.00;;;5.80;99.90;;;;;;6016806;23;20019;-81
2023/01/15 15:02:01;;;;;;;;;;;5.80;99.90;;;;;;5994455;23;20019;-82
2023/01/15 15:04:36;;;;;;;6.72;1.30;;;5.80;99.90;;;;;;6017425;23;19914;-82
2023/01/15 15:07:23;;;;;;;5.07;0.98;;;5.80;99.90;;;;;;6017166;23;20024;-82
2023/01/15 15:10:21;;;;;;;9.57;1.50;;;5.80;99.90;;;;;;5994085;23;20019;-81
2023/01/15 15:13:03;;;;;;;9.95;1.83;;;5.80;99.90;;;;;;5992608;23;20019;-82
2023/01/15 15:15:52;;;;;;;13.02;1.40;;;5.80;99.90;;;;;;6017154;23;20015;-83
2023/01/15 15:18:29;;;;;;;12.52;2.17;;;5.80;99.90;;;;;;6017523;23;20391;-83
2023/01/15 15:20:57;;;;;;;10.65;1.10;;;5.80;99.90;;;;;;6017362;23;20015;-82
2023/01/15 15:24:01;;;;;;;12.27;1.52;;;5.80;99.90;;;;;;6018213;23;20089;-82
2023/01/15 15:26:30;;;;;;;11.88;1.60;;;5.80;99.90;;;;;;6042474;23;20020;-77
2023/01/15 15:29:10;;;;;;;9.05;2.10;;;5.90;99.90;;;;;;6042784;23;20051;-83
2023/01/15 15:31:42;;;;;;;7.18;2.60;;;5.90;99.90;;;;;;6042195;23;20530;-82
2023/01/15 15:34:25;;;;;;;10.52;2.35;;;5.90;99.90;;;;;;6043060;23;20106;-79
2023/01/15 15:36:51;;;;;;;13.13;2.08;;;5.90;99.90;;;;;;6043528;23;20418;-81
2023/01/15 15:39:25;;;;;;;11.45;3.08;;;5.90;99.90;;;;;;6043348;23;20026;-78
2023/01/15 15:50:33;;;;;;;10.60;2.47;;;5.90;99.90;;;;;;6041375;23;20082;-81
2023/01/15 15:53:03;;;;;;;16.52;3.20;;;5.90;99.90;;;;;;6042510;23;20438;-79
2023/01/15 15:55:41;;;;;;;15.20;1.60;;;5.90;99.90;;;;;;6042063;23;20018;-81
2023/01/15 15:58:14;;;;;;;15.60;5.43;;;5.90;99.90;;;;;;6016785;23;20018;-79
2023/01/15 16:00:42;;;;;;;12.48;3.97;;;6.00;99.90;;;;;;6043310;23;20007;-82
2023/01/15 16:03:22;;;;;;;15.10;6.00;;;6.00;99.90;;;;;;6043015;23;20071;-84
2023/01/15 16:06:01;;;;;;;10.00;2.17;;;6.00;99.90;;;;;;5993792;23;20026;-84
2023/01/15 16:08:28;;;;;;;10.82;1.90;;;6.00;99.90;;;;;;6042416;23;20146;-82
2023/01/15 16:10:59;;;;;;;22.83;7.22;;;5.90;99.90;;;;;;6042211;23;20323;-82
2023/01/15 16:13:29;;;;;;;12.75;3.70;;;5.90;99.90;;;;;;6041683;23;20106;-79
2023/01/15 16:15:58;;;;;;;41.35;15.30;;;5.90;99.90;;;;;;6042127;23;20026;-82
2023/01/15 16:18:35;;;;;;;14.10;2.92;;;5.80;99.90;;;;;;6041901;23;20091;-83
2023/01/15 16:21:01;;;;;;;19.33;5.03;;;5.80;99.90;;;;;;6016302;23;20402;-83
2023/01/15 16:23:28;;;;;;;24.33;6.93;;;5.80;99.90;;;;;;6042387;23;20349;-83
2023/01/15 16:26:18;;;;;;;14.32;2.90;;;5.80;99.90;;;;;;6042398;23;20015;-83
2023/01/15 16:28:52;;;;;;;12.32;4.43;;;5.80;99.90;;;;;;6016654;23;20015;-85
2023/01/15 16:31:18;;;;;;;21.30;4.63;;;5.80;99.90;;;;;;6017899;23;20015;-84
2023/01/15 16:33:46;;;;;;;20.45;3.47;;;5.80;99.90;;;;;;6018714;23;20350;-84
2023/01/15 16:36:12;;;;;;;11.68;2.47;;;5.80;99.90;;;;;;6018479;23;20015;-87
2023/01/15 16:38:45;;;;;;;17.00;2.67;;;5.80;99.90;;;;;;6044916;23;20323;-82
2023/01/15 16:41:19;;;;;;;17.65;2.00;;;5.80;99.90;;;;;;6045192;23;20019;-88
2023/01/15 16:44:05;;;;;;;24.73;6.70;;;5.80;99.90;;;;;;6045449;23;20052;-82
2023/01/15 16:46:34;;;;;;;15.93;2.80;;;5.80;99.90;;;;;;6045781;23;20042;-86
2023/01/15 16:49:21;;;;;;;17.25;3.08;;;5.80;99.90;;;;;;6020420;23;20143;-84
2023/01/15 16:51:59;;;;;;;13.48;2.45;;;5.70;99.90;;;;;;5996189;23;20050;-85
2023/01/15 16:54:30;;;;;;;19.48;5.45;;;5.70;99.90;;;;;;6019472;23;20037;-86
2023/01/15 16:57:15;;;;;;;14.85;4.57;;;5.70;99.90;;;;;;6044681;23;20015;-84
2023/01/15 16:59:43;;;;;;;25.67;3.70;;;5.70;99.90;;;;;;6020128;23;20019;-80
2023/01/15 17:02:19;;;;;;;15.32;3.47;;;5.60;99.90;;;;;;5996830;23;20434;-83
2023/01/15 17:04:45;;;;;;;16.17;3.17;;;5.60;99.90;;;;;;6021127;23;20083;-82
2023/01/15 17:07:39;;;;;;;18.10;2.58;;;5.60;99.90;;;;;;6045608;23;20126;-81
2023/01/15 17:10:18;;;;;;;23.63;5.15;;;5.50;99.90;;;;;;6020444;23;20012;-85
2023/01/15 17:12:44;;;;;;;20.02;3.90;;;5.50;99.90;;;;;;6020225;23;20433;-82
2023/01/15 17:15:16;;;;;;;14.95;1.83;;;5.50;99.90;;;;;;6019349;23;20018;-83
2023/01/15 17:17:43;;;;;;;19.70;3.58;;;5.50;99.90;;;;;;6020354;23;20343;-82
2023/01/15 17:20:11;;;;;;;12.35;2.33;;;5.50;99.90;;;;;;6019568;23;20042;-81
2023/01/15 17:22:40;;;;;;;12.00;3.58;;;5.50;99.90;;;;;;5996261;23;20022;-82
2023/01/15 17:25:26;;;;;;;18.10;5.05;;;5.50;99.90;;;;;;6021008;23;20027;-82
2023/01/15 17:27:56;;;;;;;;;;;5.50;99.90;;;;;;6021251;23;20023;-83
2023/01/15 17:30:29;;;;;;;13.10;2.25;;;5.50;99.90;;;;;;6020017;23;19997;-80
2023/01/15 17:32:56;;;;;;;11.70;3.17;;;5.50;99.90;;;;;;5997241;23;20090;-84
2023/01/15 17:35:30;;;;;;;25.48;8.02;;;5.40;99.90;;;;;;6044789;23;20519;-80
2023/01/15 17:37:56;;;;;;;9.77;2.65;;;5.40;99.90;;;;;;6019189;23;20342;-84
2023/01/15 17:40:23;;;;;;;9.60;1.88;;;5.40;99.90;;;;;;6045363;23;20022;-84
2023/01/15 17:42:49;;;;;;;12.05;2.00;;;5.40;99.90;;;;;;5996896;23;20011;-85
2023/01/15 17:45:18;;;;;;;15.55;2.60;;;5.50;99.90;;;;;;6018777;23;20023;-85
2023/01/15 17:47:44;;;;;;;10.13;1.90;;;5.40;99.90;;;;;;6044319;23;20030;-83
2023/01/15 17:50:10;;;;;;;18.02;3.25;;;5.40;99.90;;;;;;6044025;23;20082;-84
2023/01/15 17:52:35;;;;;;;13.25;2.00;;;5.40;99.90;;;;;;6044798;23;20050;-83
2023/01/15 18:06:06;;;;;;;13.60;2.95;;;5.40;99.90;;;;;;6045613;23;20079;-83
2023/01/15 18:08:32;;;;;;;18.70;2.35;;;5.50;99.90;;;;;;6019344;23;20019;-84
2023/01/15 18:10:58;;;;;;;11.85;2.03;;;5.50;99.90;;;;;;6020515;23;20066;-83
2023/01/15 18:13:24;;;;;;;11.82;2.58;;;5.50;99.90;;;;;;6020571;23;20011;-85
2023/01/15 18:15:51;;;;;;;11.45;1.80;;;5.60;99.90;;;;;;6019709;23;20353;-86
2023/01/15 18:18:17;;;;;;;13.05;2.05;;;5.60;99.90;;;;;;6044287;23;20342;-82
2023/01/15 18:20:43;;;;;;;9.70;1.60;;;5.60;99.90;;;;;;6044104;23;20012;-82
2023/01/15 18:23:09;;;;;;;17.92;3.15;;;5.60;99.90;;;;;;6043592;23;20011;-87
2023/01/15 18:25:35;;;;;;;6.88;1.88;;;5.70;99.90;;;;;;6018958;23;20027;-83
2023/01/15 18:28:01;;;;;;;7.88;2.28;;;5.70;99.90;;;;;;5993854;23;20063;-84
2023/01/15 18:30:26;;;;;;;14.98;4.13;;;5.80;99.90;;;;;;6018023;23;20400;-84
2023/01/15 18:32:52;;;;;;;8.57;1.58;;;5.80;99.90;;;;;;6042871;23;20020;-86
2023/01/15 18:35:18;;;;;;;11.50;1.77;;;5.80;99.90;;;;;;6017420;23;20066;-84
2023/01/15 18:37:44;;;;;;;18.17;2.63;;;5.90;99.90;;;;;;6016868;23;20011;-84
2023/01/15 18:40:10;;;;;;;12.70;2.47;;;5.90;99.90;;;;;;6017181;23;20051;-85
2023/01/15 18:48:09;;;;;;;15.15;3.50;;;5.90;99.90;;;;;;6042643;23;20052;-81
2023/01/15 18:50:35;;;;;;;12.80;2.15;;;5.90;99.90;;;;;;6042701;23;20015;-81
2023/01/15 18:53:01;;;;;;;10.25;2.15;;;5.90;99.90;;;;;;6017668;23;20035;-80
2023/01/15 18:55:26;;;;;;;7.60;1.63;;;5.90;99.90;;;;;;6018157;23;20437;-82
2023/01/15 18:57:55;;;;;;;28.05;8.43;;;5.90;99.90;;;;;;6043225;23;20466;-79
2023/01/15 19:00:23;;;;;;;8.18;1.55;;;5.90;99.90;;;;;;6042213;23;20018;-83
2023/01/15 19:02:49;;;;;;;8.93;2.20;;;5.90;99.90;;;;;;5994927;23;20015;-79
2023/01/15 19:05:17;;;;;;;4.15;1.48;;;5.90;99.90;;;;;;5994408;23;20481;-82
2023/01/15 19:07:44;;;;;;;10.73;1.60;;;5.90;99.90;;;;;;6017522;23;20012;-83
2023/01/15 19:10:14;;;;;;;9.60;1.65;;;6.00;99.90;;;;;;6042317;23;20395;-81
2023/01/15 19:12:40;;;;;;;9.48;1.60;;;5.90;99.90;;;;;;6016776;23;20022;-84
2023/01/15 19:20:38;;;;;;;7.47;1.58;;;5.90;99.90;;;;;;6040362;23;20254;-80
2023/01/15 19:23:05;;;;;;;8.38;1.38;;;5.90;99.90;;;;;;5995056;23;20015;-84
2023/01/15 19:25:42;;;;;;;5.88;1.45;;;5.80;99.90;;;;;;5994163;23;20026;-83
2023/01/15 19:28:13;;;;;;;6.32;1.17;;;5.80;99.90;;;;;;6044060;23;20063;-83
2023/01/15 19:30:39;;;;;;;7.47;1.30;;;5.80;99.90;;;;;;5995397;23;20026;-82
2023/01/15 19:33:05;;;;;;;6.75;1.00;;;5.80;99.90;;;;;;6044114;23;20051;-81
2023/01/15 19:35:31;;;;;;;10.60;1.98;;;5.80;99.90;;;;;;6017730;23;20012;-84
2023/01/15 19:37:57;;;;;;;9.80;1.60;;;5.70;99.90;;;;;;6017838;23;20030;-79
2023/01/15 19:40:25;;;;;;;11.70;2.47;;;5.70;99.90;;;;;;6017191;23;20430;-81